Time;durP1;ratioP1;P1;durP2;ratioP2;P2;SDS_P1;SDS_P2;PMS_P1;PMS_P2;Temp;Humidity;BMP_temperature;BMP_pressure;BME280_temperature;BME280_humidity;BME280_pressure;Samples;Min_cycle;Max_cycle;Signal;HPM_P1;HPM_P2
2023/07/25 00:01:31;;;;;;;9.25;2.47;;;14.50;99.90;;;;;;5032784;28;20052;-74
2023/07/25 00:03:58;;;;;;;6.68;2.15;;;14.50;99.90;;;;;;5033095;28;20179;-75
2023/07/25 00:06:24;;;;;;;6.90;1.92;;;14.60;99.90;;;;;;5032683;28;20397;-74
2023/07/25 00:08:49;;;;;;;5.55;1.83;;;14.50;99.90;;;;;;5032438;28;20045;-74
2023/07/25 00:11:15;;;;;;;4.75;2.00;;;14.50;99.90;;;;;;5033150;28;20042;-74
2023/07/25 00:13:44;;;;;;;6.80;2.05;;;14.40;99.90;;;;;;5032275;28;20139;-75
2023/07/25 00:16:10;;;;;;;7.53;2.20;;;14.40;99.90;;;;;;5031854;28;20080;-74
2023/07/25 00:18:36;;;;;;;6.30;1.70;;;14.30;99.90;;;;;;5031310;28;20065;-74
2023/07/25 00:21:02;;;;;;;10.38;2.05;;;14.30;99.90;;;;;;5032238;28;20168;-74
2023/07/25 00:23:27;;;;;;;5.05;1.67;;;14.30;99.90;;;;;;5032012;28;20107;-74
2023/07/25 00:25:53;;;;;;;5.20;1.83;;;14.30;99.90;;;;;;5032069;28;20378;-74
2023/07/25 00:28:18;;;;;;;5.32;1.77;;;14.20;99.90;;;;;;5031965;28;20048;-74
2023/07/25 00:30:47;;;;;;;8.65;1.90;;;14.30;99.90;;;;;;5033193;28;20048;-74
2023/07/25 00:33:13;;;;;;;8.73;2.08;;;14.10;99.90;;;;;;5031773;28;20043;-74
2023/07/25 00:35:39;;;;;;;7.38;1.83;;;14.00;99.90;;;;;;5031442;28;20128;-74
2023/07/25 00:38:09;;;;;;;6.80;1.80;;;14.00;99.90;;;;;;5032358;28;20052;-74
2023/07/25 00:40:38;;;;;;;7.97;1.85;;;14.00;99.90;;;;;;5030470;28;20052;-74
2023/07/25 00:43:16;;;;;;;6.97;2.03;;;14.00;99.90;;;;;;5032071;28;20103;-74
2023/07/25 00:45:42;;;;;;;7.93;2.20;;;14.00;99.90;;;;;;5032268;28;20076;-74
2023/07/25 00:48:08;;;;;;;11.23;2.95;;;14.00;99.90;;;;;;5030901;28;20488;-74
2023/07/25 00:50:34;;;;;;;10.10;2.20;;;14.00;99.90;;;;;;5032265;28;20044;-74
2023/07/25 00:53:01;;;;;;;9.75;2.40;;;14.00;99.90;;;;;;5031482;28;20049;-73
2023/07/25 00:55:28;;;;;;;6.65;2.10;;;14.00;99.90;;;;;;5031717;28;20045;-74
2023/07/25 00:57:54;;;;;;;7.65;2.75;;;13.90;99.90;;;;;;5032031;28;20100;-74
2023/07/25 01:00:20;;;;;;;9.45;2.17;;;13.90;99.90;;;;;;5032369;28;20501;-73
2023/07/25 01:02:46;;;;;;;7.85;2.53;;;14.00;99.90;;;;;;5031477;28;20163;-74
2023/07/25 01:05:15;;;;;;;7.05;2.20;;;14.00;99.90;;;;;;5031698;28;20049;-74
2023/07/25 01:07:41;;;;;;;10.23;2.10;;;14.00;99.90;;;;;;5031260;28;20057;-73
2023/07/25 01:10:07;;;;;;;12.43;2.40;;;14.00;99.90;;;;;;5035795;28;20041;-73
2023/07/25 01:12:33;;;;;;;10.82;2.30;;;14.10;99.90;;;;;;5034311;28;20041;-74
2023/07/25 01:14:58;;;;;;;9.32;2.50;;;14.10;99.90;;;;;;5033161;28;20446;-74
2023/07/25 01:17:25;;;;;;;8.23;2.08;;;14.10;99.90;;;;;;5036885;28;20041;-73
2023/07/25 01:19:52;;;;;;;12.70;2.20;;;14.10;99.90;;;;;;5037709;28;20055;-73
2023/07/25 01:22:19;;;;;;;8.00;1.95;;;14.10;99.90;;;;;;5038072;28;20054;-73
2023/07/25 01:24:47;;;;;;;8.77;2.08;;;14.10;99.90;;;;;;5038883;28;20378;-74
2023/07/25 01:27:13;;;;;;;7.47;2.08;;;14.10;99.90;;;;;;5037784;28;20049;-73
2023/07/25 01:29:39;;;;;;;7.75;2.22;;;14.10;99.90;;;;;;5040676;28;20083;-73
2023/07/25 01:32:05;;;;;;;6.35;2.17;;;14.10;99.90;;;;;;5040290;28;20045;-73
2023/07/25 01:34:31;;;;;;;9.90;2.20;;;14.00;99.90;;;;;;5041018;28;20045;-73
2023/07/25 01:37:00;;;;;;;8.57;2.10;;;14.00;99.90;;;;;;5042010;28;20049;-73
2023/07/25 01:39:28;;;;;;;5.90;2.17;;;13.90;99.90;;;;;;5038465;28;20045;-74
2023/07/25 01:41:54;;;;;;;9.80;2.88;;;13.90;99.90;;;;;;5035499;28;20121;-74
2023/07/25 01:44:19;;;;;;;6.63;1.77;;;13.80;99.90;;;;;;5035766;28;20140;-74
2023/07/25 01:46:45;;;;;;;9.32;2.03;;;13.80;99.90;;;;;;5035119;28;20053;-73
2023/07/25 01:49:16;;;;;;;6.32;1.92;;;13.80;99.90;;;;;;5034051;28;20058;-73
2023/07/25 01:51:42;;;;;;;7.10;2.05;;;13.80;99.90;;;;;;5035860;28;20053;-74
2023/07/25 01:54:11;;;;;;;8.60;1.85;;;13.80;99.90;;;;;;5035527;28;20056;-74
2023/07/25 01:56:39;;;;;;;5.65;1.60;;;13.70;99.90;;;;;;5035319;28;20042;-73
2023/07/25 01:59:05;;;;;;;6.53;1.85;;;13.70;99.90;;;;;;5036036;28;20060;-74
2023/07/25 02:01:31;;;;;;;6.97;2.22;;;13.70;99.90;;;;;;5036359;28;20084;-74
2023/07/25 02:03:58;;;;;;;10.68;2.13;;;13.70;99.90;;;;;;5035861;28;20110;-74
2023/07/25 02:06:23;;;;;;;5.15;1.73;;;13.70;99.90;;;;;;5035262;28;20058;-74
2023/07/25 02:08:49;;;;;;;5.57;1.65;;;13.60;99.90;;;;;;5036061;28;20059;-74
2023/07/25 02:11:15;;;;;;;6.43;2.33;;;13.60;99.90;;;;;;5034081;28;20041;-74
2023/07/25 02:13:41;;;;;;;7.55;2.05;;;13.60;99.90;;;;;;5035013;28;20047;-74
2023/07/25 02:16:06;;;;;;;7.20;1.60;;;13.50;99.90;;;;;;5034868;28;20095;-74
2023/07/25 02:18:32;;;;;;;4.63;1.40;;;13.50;99.90;;;;;;5035337;28;20049;-74
2023/07/25 02:20:59;;;;;;;5.80;1.83;;;13.50;99.90;;;;;;5036247;28;20370;-74
2023/07/25 02:23:25;;;;;;;7.15;1.77;;;13.40;99.90;;;;;;5034046;28;20049;-74
2023/07/25 02:25:50;;;;;;;7.88;1.88;;;13.40;99.90;;;;;;5034484;28;20060;-74
2023/07/25 02:28:16;;;;;;;6.95;1.50;;;13.30;99.90;;;;;;5033628;28;20139;-74
2023/07/25 02:30:42;;;;;;;8.65;2.13;;;13.30;99.90;;;;;;5033829;28;20092;-73
2023/07/25 02:33:08;;;;;;;4.85;1.85;;;13.30;99.90;;;;;;5034361;28;20409;-74
2023/07/25 02:35:33;;;;;;;5.05;1.80;;;13.30;99.90;;;;;;5034332;28;20037;-73
2023/07/25 02:37:59;;;;;;;7.18;1.75;;;13.20;99.90;;;;;;5033602;28;20060;-74
2023/07/25 02:40:25;;;;;;;6.15;2.05;;;13.20;99.90;;;;;;5034338;28;20041;-74
2023/07/25 02:42:51;;;;;;;9.90;2.13;;;13.20;99.90;;;;;;5033480;28;20045;-73
2023/07/25 02:45:17;;;;;;;6.05;1.95;;;13.10;99.90;;;;;;5034993;28;20045;-73
2023/07/25 02:47:43;;;;;;;9.55;2.40;;;13.10;99.90;;;;;;5035528;28;20052;-74
2023/07/25 02:50:09;;;;;;;7.78;2.38;;;13.00;99.90;;;;;;5035455;28;20044;-74
2023/07/25 02:52:35;;;;;;;8.73;2.00;;;13.00;99.90;;;;;;5034103;28;20444;-73
2023/07/25 02:55:00;;;;;;;9.75;1.75;;;13.00;99.90;;;;;;5034492;28;20041;-73
2023/07/25 02:57:26;;;;;;;10.05;1.70;;;12.90;99.90;;;;;;5033798;28;20124;-73
2023/07/25 02:59:52;;;;;;;7.50;1.90;;;12.90;99.90;;;;;;5033108;28;20060;-74
2023/07/25 03:02:17;;;;;;;5.63;1.75;;;12.80;99.90;;;;;;5035277;28;20038;-74
2023/07/25 03:04:46;;;;;;;6.93;2.28;;;12.80;99.90;;;;;;5033714;28;20493;-73
2023/07/25 03:07:12;;;;;;;7.65;2.00;;;12.80;99.90;;;;;;5034447;28;20120;-74
2023/07/25 03:09:40;;;;;;;7.13;1.70;;;12.70;99.90;;;;;;5034439;28;20136;-73
2023/07/25 03:12:06;;;;;;;10.82;2.08;;;12.60;99.90;;;;;;5033788;28;20053;-73
2023/07/25 03:14:31;;;;;;;10.75;2.22;;;12.60;99.90;;;;;;5032506;28;20401;-74
2023/07/25 03:16:58;;;;;;;6.60;1.75;;;12.70;99.90;;;;;;5033702;28;20054;-73
2023/07/25 03:19:24;;;;;;;7.95;2.13;;;12.70;99.90;;;;;;5033689;28;20050;-74
2023/07/25 03:21:51;;;;;;;8.25;1.98;;;12.70;99.90;;;;;;5032060;28;20049;-73
2023/07/25 03:24:16;;;;;;;10.23;2.10;;;12.80;99.90;;;;;;5033732;28;20096;-73
2023/07/25 03:26:42;;;;;;;9.00;2.03;;;12.80;99.90;;;;;;5032523;28;20085;-74
2023/07/25 03:29:08;;;;;;;7.90;1.95;;;12.80;99.90;;;;;;5033654;28;20052;-74
2023/07/25 03:31:34;;;;;;;9.48;2.10;;;12.80;99.90;;;;;;5034369;28;20038;-74
2023/07/25 03:34:00;;;;;;;7.07;1.90;;;12.80;99.90;;;;;;5033652;28;20064;-73
2023/07/25 03:36:25;;;;;;;5.15;1.88;;;12.80;99.90;;;;;;5034617;28;20049;-73
2023/07/25 03:38:51;;;;;;;8.20;1.98;;;12.70;99.90;;;;;;5032566;28;20429;-73
2023/07/25 03:41:16;;;;;;;10.05;2.05;;;12.70;99.90;;;;;;5032581;28;20038;-73
2023/07/25 03:43:42;;;;;;;4.35;1.80;;;12.70;99.90;;;;;;5032744;28;20061;-74
2023/07/25 03:46:08;;;;;;;6.45;1.67;;;12.60;99.90;;;;;;5034513;28;20041;-73
2023/07/25 03:48:40;;;;;;;5.63;1.90;;;12.60;99.90;;;;;;5033181;28;20073;-73
2023/07/25 03:51:05;;;;;;;8.30;1.80;;;12.50;99.90;;;;;;5033164;28;20091;-74
2023/07/25 03:53:31;;;;;;;8.32;1.85;;;12.50;99.90;;;;;;5034012;28;20053;-73
2023/07/25 03:56:00;;;;;;;5.57;1.60;;;12.50;99.90;;;;;;5033611;28;20515;-73
2023/07/25 03:58:25;;;;;;;8.00;1.90;;;12.40;99.90;;;;;;5033102;28;20473;-74
2023/07/25 04:00:51;;;;;;;7.32;1.75;;;12.40;99.90;;;;;;5033645;28;20068;-74
2023/07/25 04:03:17;;;;;;;6.45;1.38;;;12.40;99.90;;;;;;5031090;28;20049;-74
2023/07/25 04:05:43;;;;;;;3.85;1.60;;;12.40;99.90;;;;;;5032068;28;20077;-74
2023/07/25 04:08:08;;;;;;;8.10;1.75;;;12.30;99.90;;;;;;5033723;28;20077;-74
2023/07/25 04:10:34;;;;;;;5.97;1.60;;;12.40;99.90;;;;;;5031920;28;20125;-74
2023/07/25 04:13:00;;;;;;;8.32;1.88;;;12.40;99.90;;;;;;5033682;28;20099;-74
2023/07/25 04:15:26;;;;;;;7.28;1.58;;;12.50;99.90;;;;;;5032982;28;20045;-74
2023/07/25 04:17:51;;;;;;;8.15;1.70;;;12.50;99.90;;;;;;5031066;28;20056;-74
2023/07/25 04:20:19;;;;;;;6.55;1.50;;;12.60;99.90;;;;;;5032643;28;20041;-74
2023/07/25 04:22:45;;;;;;;8.68;1.80;;;12.60;99.90;;;;;;5033064;28;20049;-72
2023/07/25 04:25:14;;;;;;;9.13;1.50;;;12.60;99.90;;;;;;5031570;28;20493;-72
2023/07/25 04:27:40;;;;;;;5.82;1.55;;;12.70;99.90;;;;;;5031860;28;20050;-72
2023/07/25 04:30:06;;;;;;;5.22;1.30;;;12.70;99.90;;;;;;5031349;28;20048;-71
2023/07/25 04:32:32;;;;;;;3.90;1.33;;;12.70;99.90;;;;;;5032282;28;20034;-72
2023/07/25 04:34:59;;;;;;;8.82;1.52;;;12.70;99.90;;;;;;5032052;28;20064;-72
2023/07/25 04:37:25;;;;;;;4.10;1.27;;;12.70;99.90;;;;;;5032613;28;20112;-72
2023/07/25 04:39:50;;;;;;;8.05;1.65;;;12.70;99.90;;;;;;5031778;28;20076;-72
2023/07/25 04:42:16;;;;;;;4.82;1.38;;;12.70;99.90;;;;;;5032181;28;20477;-72
2023/07/25 04:44:43;;;;;;;3.60;1.40;;;12.80;99.90;;;;;;5032064;28;20091;-72
2023/07/25 04:47:08;;;;;;;7.00;1.35;;;12.80;99.90;;;;;;5032752;28;20034;-72
2023/07/25 04:49:34;;;;;;;7.68;1.70;;;12.80;99.90;;;;;;5032848;28;20051;-72
2023/07/25 04:52:00;;;;;;;5.00;1.40;;;12.80;99.90;;;;;;5031213;28;20034;-71
2023/07/25 04:54:26;;;;;;;4.65;1.00;;;12.80;99.90;;;;;;5032860;28;20388;-73
2023/07/25 04:56:51;;;;;;;3.00;1.13;;;12.90;99.90;;;;;;5031059;28;20665;-73
2023/07/25 04:59:17;;;;;;;6.45;1.50;;;12.90;99.90;;;;;;5030675;28;20136;-73
2023/07/25 05:01:43;;;;;;;6.72;1.30;;;13.00;99.90;;;;;;5032851;28;20081;-73
2023/07/25 05:04:08;;;;;;;7.97;1.30;;;13.00;99.90;;;;;;5031541;28;20085;-72
2023/07/25 05:06:37;;;;;;;5.38;1.15;;;13.10;99.90;;;;;;5030703;28;20097;-72
2023/07/25 05:09:03;;;;;;;3.75;1.35;;;13.10;99.90;;;;;;5031807;28;20182;-73
2023/07/25 05:11:29;;;;;;;4.85;1.05;;;13.10;99.90;;;;;;5031139;28;20041;-73
2023/07/25 05:13:54;;;;;;;4.63;1.00;;;13.10;99.90;;;;;;5029447;28;20386;-73
2023/07/25 05:16:20;;;;;;;5.70;1.30;;;13.20;99.90;;;;;;5032209;28;20064;-73
2023/07/25 05:18:47;;;;;;;4.35;1.10;;;13.20;99.90;;;;;;5031606;28;20045;-73
2023/07/25 05:21:15;;;;;;;6.28;1.13;;;13.20;99.90;;;;;;5030397;28;20045;-73
2023/07/25 05:23:41;;;;;;;4.18;0.82;;;13.20;99.90;;;;;;5032387;28;20072;-73
2023/07/25 05:26:07;;;;;;;5.25;0.90;;;13.20;99.90;;;;;;5031816;28;20478;-73
2023/07/25 05:28:32;;;;;;;2.65;1.10;;;13.30;99.90;;;;;;5029947;28;20057;-73
2023/07/25 05:30:58;;;;;;;4.65;1.00;;;13.20;99.90;;;;;;5032400;28;20042;-72
2023/07/25 05:33:24;;;;;;;3.40;1.05;;;13.30;99.90;;;;;;5030441;28;20045;-73
2023/07/25 05:35:58;;;;;;;4.07;1.00;;;13.30;99.90;;;;;;5031267;28;20068;-73
2023/07/25 05:38:23;;;;;;;3.47;0.90;;;13.30;99.90;;;;;;5032433;28;20081;-73
2023/07/25 05:40:49;;;;;;;6.47;1.00;;;13.40;99.90;;;;;;5031513;28;20076;-74
2023/07/25 05:43:18;;;;;;;4.65;1.10;;;13.40;99.90;;;;;;5031630;28;20126;-73
2023/07/25 05:45:43;;;;;;;3.38;0.88;;;13.50;99.90;;;;;;5031085;28;20072;-73
2023/07/25 05:48:09;;;;;;;7.43;0.90;;;13.60;99.90;;;;;;5031242;28;20489;-73
2023/07/25 05:50:38;;;;;;;7.47;2.45;;;13.60;99.90;;;;;;5031140;28;20045;-74
2023/07/25 05:53:03;;;;;;;8.82;2.35;;;13.70;99.90;;;;;;5031871;28;20389;-73
2023/07/25 05:55:29;;;;;;;5.72;1.20;;;13.80;99.90;;;;;;5031494;28;20041;-73
2023/07/25 05:57:55;;;;;;;4.90;1.33;;;13.90;99.90;;;;;;5031605;28;20051;-73
2023/07/25 06:00:20;;;;;;;5.45;1.17;;;14.00;99.90;;;;;;5030450;28;20482;-73
2023/07/25 06:02:46;;;;;;;5.97;2.22;;;14.20;99.90;;;;;;5031577;28;20176;-73
2023/07/25 06:05:14;;;;;;;7.50;1.80;;;14.30;99.90;;;;;;5030928;28;20554;-73
2023/07/25 06:07:43;;;;;;;2.67;0.90;;;14.50;99.90;;;;;;5032190;28;20088;-73
2023/07/25 06:10:09;;;;;;;4.82;1.23;;;14.70;99.90;;;;;;5031693;28;20517;-73
2023/07/25 06:12:35;;;;;;;4.63;1.13;;;15.00;99.90;;;;;;5030496;28;20049;-73
2023/07/25 06:15:01;;;;;;;4.88;1.05;;;15.10;99.90;;;;;;5030885;28;20485;-73
2023/07/25 06:17:26;;;;;;;4.00;1.08;;;15.30;99.90;;;;;;5031398;28;20404;-73
2023/07/25 06:19:52;;;;;;;3.40;1.15;;;15.30;99.90;;;;;;5030795;28;20054;-73
2023/07/25 06:22:18;;;;;;;4.70;0.98;;;15.30;99.90;;;;;;5030808;28;20049;-73
2023/07/25 06:24:43;;;;;;;7.20;1.10;;;15.30;99.90;;;;;;5029748;28;20107;-73
2023/07/25 06:27:09;;;;;;;4.30;1.00;;;15.30;99.90;;;;;;5034619;28;20100;-73
2023/07/25 06:29:35;;;;;;;3.05;1.00;;;15.30;99.90;;;;;;5033083;28;20508;-73
2023/07/25 06:32:00;;;;;;;3.13;1.10;;;15.30;99.90;;;;;;5034308;28;20033;-72
2023/07/25 06:34:26;;;;;;;5.18;1.00;;;15.30;99.90;;;;;;5034980;28;20116;-73
2023/07/25 06:36:55;;;;;;;5.60;1.25;;;15.30;99.90;;;;;;5034772;28;20081;-73
2023/07/25 06:39:21;;;;;;;4.78;1.00;;;15.30;99.90;;;;;;5035206;28;20049;-73
2023/07/25 06:41:47;;;;;;;4.95;0.95;;;15.30;99.90;;;;;;5034210;28;20037;-73
2023/07/25 06:44:23;;;;;;;4.22;1.00;;;15.30;99.90;;;;;;5033247;28;20048;-74
2023/07/25 06:46:49;;;;;;;2.85;1.00;;;15.40;99.90;;;;;;5033778;28;20056;-73
2023/07/25 06:49:14;;;;;;;5.97;1.17;;;15.40;99.90;;;;;;5034026;28;20045;-73
2023/07/25 06:51:40;;;;;;;4.45;1.10;;;15.50;99.90;;;;;;5034483;28;20047;-73
2023/07/25 06:54:06;;;;;;;3.38;1.02;;;15.50;99.90;;;;;;5033774;28;20065;-72
2023/07/25 06:56:31;;;;;;;2.03;0.88;;;15.50;99.90;;;;;;5033841;28;20045;-72
2023/07/25 06:59:00;;;;;;;5.30;1.00;;;15.60;99.90;;;;;;5034377;28;20052;-72
2023/07/25 07:01:27;;;;;;;3.78;0.90;;;15.60;99.90;;;;;;5034829;28;20057;-72
2023/07/25 07:03:56;;;;;;;3.50;0.88;;;15.70;99.90;;;;;;5033523;28;20497;-72
2023/07/25 07:06:22;;;;;;;4.10;0.90;;;15.70;99.90;;;;;;5032262;28;20051;-72
2023/07/25 07:08:48;;;;;;;3.67;1.10;;;15.80;99.90;;;;;;5033537;28;20128;-72
2023/07/25 07:11:14;;;;;;;5.68;1.10;;;15.80;99.90;;;;;;5034222;28;20097;-72
2023/07/25 07:13:40;;;;;;;3.47;1.30;;;15.90;99.90;;;;;;5026258;28;20046;-72
2023/07/25 07:16:05;;;;;;;2.40;0.93;;;15.90;99.90;;;;;;5019702;28;20050;-73
2023/07/25 07:18:34;;;;;;;3.03;1.00;;;15.90;99.90;;;;;;5034354;28;20053;-73
2023/07/25 07:21:00;;;;;;;2.97;0.80;;;16.00;99.90;;;;;;5034025;28;20037;-73
2023/07/25 07:23:26;;;;;;;4.47;1.10;;;16.00;99.90;;;;;;5034650;28;20045;-73
2023/07/25 07:25:52;;;;;;;4.03;1.40;;;16.10;99.90;;;;;;5032183;28;20512;-73
2023/07/25 07:28:18;;;;;;;4.40;0.90;;;16.10;99.90;;;;;;5033523;28;20061;-73
2023/07/25 07:30:51;;;;;;;4.63;1.40;;;16.20;99.90;;;;;;5032904;28;20477;-73
2023/07/25 07:33:19;;;;;;;4.28;1.02;;;16.50;99.90;;;;;;5032621;28;20056;-74
2023/07/25 07:35:45;;;;;;;5.85;1.10;;;17.20;99.90;;;;;;5033217;28;20048;-73
2023/07/25 07:38:11;;;;;;;4.32;1.30;;;18.10;99.90;;;;;;5033288;28;20473;-74
2023/07/25 07:40:37;;;;;;;6.05;1.10;;;19.00;99.90;;;;;;5031319;28;20513;-72
2023/07/25 07:43:03;;;;;;;4.07;0.90;;;19.70;98.50;;;;;;5034463;28;20061;-74
2023/07/25 07:45:31;;;;;;;6.38;1.02;;;20.40;97.70;;;;;;5033273;28;20056;-74
2023/07/25 07:47:56;;;;;;;3.60;0.85;;;21.10;97.80;;;;;;5033691;28;20084;-74
2023/07/25 07:50:22;;;;;;;3.85;0.80;;;21.70;97.90;;;;;;5034523;28;20076;-74
2023/07/25 07:52:48;;;;;;;3.42;0.80;;;22.40;95.10;;;;;;5032727;28;20073;-72
2023/07/25 07:55:15;;;;;;;4.32;0.95;;;22.80;95.60;;;;;;5031958;28;20053;-74
2023/07/25 07:57:43;;;;;;;2.85;1.00;;;23.40;94.80;;;;;;5032499;28;20060;-72
2023/07/25 08:00:10;;;;;;;2.75;0.80;;;23.40;94.80;;;;;;5031920;28;20421;-74
2023/07/25 08:02:36;;;;;;;4.25;1.17;;;23.10;94.40;;;;;;5031534;28;20045;-73
2023/07/25 08:05:01;;;;;;;3.22;0.80;;;22.60;94.60;;;;;;5032684;28;20050;-74
2023/07/25 08:07:28;;;;;;;2.55;0.80;;;21.90;94.70;;;;;;5015640;28;20041;-74
2023/07/25 08:09:55;;;;;;;4.30;0.80;;;22.00;94.90;;;;;;5030388;28;20060;-76
2023/07/25 08:12:21;;;;;;;3.78;0.85;;;21.70;94.90;;;;;;5022542;28;20045;-74
2023/07/25 08:14:47;;;;;;;4.40;1.00;;;21.40;95.30;;;;;;5028426;28;20112;-74
2023/07/25 08:17:14;;;;;;;4.93;0.93;;;21.10;96.00;;;;;;5031595;28;20128;-75
2023/07/25 08:19:40;;;;;;;3.60;0.90;;;20.90;96.40;;;;;;5032150;28;20034;-75
2023/07/25 08:22:10;;;;;;;3.58;1.00;;;21.00;95.20;;;;;;5027263;28;20057;-74
2023/07/25 08:24:36;;;;;;;3.92;0.90;;;21.50;95.30;;;;;;5033496;28;20045;-75
2023/07/25 08:27:03;;;;;;;3.03;0.93;;;22.30;94.30;;;;;;5032601;28;20045;-74
2023/07/25 08:29:28;;;;;;;4.20;1.00;;;23.00;95.10;;;;;;5031501;28;20054;-74
2023/07/25 08:31:54;;;;;;;6.20;1.02;;;23.90;94.00;;;;;;5031785;28;20050;-73
2023/07/25 08:34:20;;;;;;;5.18;0.98;;;24.60;93.20;;;;;;5032168;28;20503;-73
2023/07/25 08:36:46;;;;;;;3.63;1.02;;;25.10;92.80;;;;;;5031565;28;20076;-75
2023/07/25 08:39:12;;;;;;;3.15;0.80;;;25.30;92.10;;;;;;5031837;28;20083;-73
2023/07/25 08:41:49;;;;;;;3.88;1.00;;;24.60;92.00;;;;;;5036295;28;20445;-76
2023/07/25 08:44:19;;;;;;;3.25;0.90;;;23.70;92.20;;;;;;5025115;28;20050;-76
2023/07/25 08:46:45;;;;;;;5.38;1.05;;;23.30;93.20;;;;;;5047670;28;20045;-76
2023/07/25 08:49:15;;;;;;;5.55;0.85;;;23.30;93.00;;;;;;5049440;28;20049;-76
2023/07/25 08:51:47;;;;;;;2.80;0.85;;;23.60;93.50;;;;;;5048968;28;20695;-75
2023/07/25 08:54:32;;;;;;;2.85;0.90;;;23.70;92.10;;;;;;5033427;28;20116;-77
2023/07/25 08:56:58;;;;;;;5.22;0.90;;;23.40;92.50;;;;;;5040627;23;20048;-74
2023/07/25 08:59:25;;;;;;;3.05;0.70;;;24.10;90.90;;;;;;5051514;28;20072;-75
2023/07/25 09:01:53;;;;;;;2.80;0.80;;;24.50;91.40;;;;;;5030163;28;20055;-75
2023/07/25 09:04:20;;;;;;;2.95;0.73;;;24.90;90.60;;;;;;5033570;28;20232;-75
2023/07/25 09:06:49;;;;;;;3.45;0.90;;;25.70;90.20;;;;;;5033758;28;20056;-74
2023/07/25 09:09:17;;;;;;;2.60;0.80;;;25.70;90.10;;;;;;5034411;28;20044;-75
2023/07/25 09:11:44;;;;;;;2.70;0.70;;;25.50;88.50;;;;;;5047643;28;20032;-75
2023/07/25 09:14:11;;;;;;;3.38;0.80;;;25.00;89.70;;;;;;5034124;28;20041;-74
2023/07/25 09:16:36;;;;;;;3.33;0.80;;;25.20;89.40;;;;;;5051971;28;20048;-74
2023/07/25 09:19:02;;;;;;;2.45;1.00;;;25.70;90.30;;;;;;5033140;28;20091;-74
2023/07/25 09:21:28;;;;;;;3.25;0.73;;;25.30;89.10;;;;;;5051730;28;20049;-74
2023/07/25 09:23:56;;;;;;;2.47;0.90;;;25.40;88.20;;;;;;5051758;28;20049;-74
2023/07/25 09:26:27;;;;;;;1.55;0.60;;;24.90;90.30;;;;;;5033227;28;20090;-73
2023/07/25 09:28:59;;;;;;;4.25;0.88;;;24.90;90.00;;;;;;5033699;28;20048;-74
2023/07/25 09:31:26;;;;;;;2.85;0.80;;;25.20;90.00;;;;;;5034268;28;20041;-75
2023/07/25 09:33:53;;;;;;;5.68;0.80;;;25.80;90.10;;;;;;5033044;28;20040;-75
2023/07/25 09:36:20;;;;;;;4.25;1.00;;;26.50;89.10;;;;;;5051680;28;20045;-73
2023/07/25 09:38:55;;;;;;;3.70;0.90;;;26.40;88.60;;;;;;5051573;28;20048;-73
2023/07/25 09:41:25;;;;;;;4.88;0.90;;;26.40;86.20;;;;;;5033485;28;20036;-73
2023/07/25 09:43:51;;;;;;;2.53;0.80;;;25.80;86.80;;;;;;5052025;28;20106;-73
2023/07/25 09:46:18;;;;;;;4.90;1.00;;;25.10;88.30;;;;;;5030200;28;20401;-71
2023/07/25 09:48:46;;;;;;;2.33;0.80;;;24.40;89.70;;;;;;5052393;28;20514;-74
2023/07/25 09:51:12;;;;;;;2.45;0.80;;;23.60;90.40;;;;;;5052873;28;20044;-72
2023/07/25 09:53:44;;;;;;;2.55;0.90;;;23.10;91.00;;;;;;5032827;28;20558;-72
2023/07/25 09:56:11;;;;;;;5.78;0.90;;;22.60;91.30;;;;;;5028368;28;20061;-74
2023/07/25 09:58:37;;;;;;;3.28;0.82;;;22.30;91.60;;;;;;5032835;28;20056;-75
2023/07/25 10:01:03;;;;;;;4.63;0.98;;;21.80;92.10;;;;;;5031339;28;20064;-72
2023/07/25 10:03:30;;;;;;;3.72;0.88;;;21.60;93.00;;;;;;5037019;28;20044;-74
2023/07/25 10:05:57;;;;;;;6.10;1.00;;;21.40;93.60;;;;;;5038723;28;20042;-74
2023/07/25 10:08:26;;;;;;;3.35;0.90;;;21.30;93.60;;;;;;5036212;28;20068;-77
2023/07/25 10:10:54;;;;;;;3.67;1.00;;;21.20;93.40;;;;;;5037383;28;20378;-75
2023/07/25 10:13:20;;;;;;;4.05;0.90;;;21.10;93.90;;;;;;5039913;28;20137;-75
2023/07/25 10:15:46;;;;;;;2.38;0.95;;;21.00;94.30;;;;;;5040177;28;20064;-77
2023/07/25 10:18:29;;;;;;;2.80;0.90;;;21.30;94.50;;;;;;5031631;28;20049;-77
2023/07/25 10:20:54;;;;;;;5.78;1.20;;;21.70;94.30;;;;;;5041146;28;20092;-78
2023/07/25 10:23:34;;;;;;;4.60;0.90;;;22.00;93.40;;;;;;5038981;28;20485;-74
2023/07/25 10:26:11;;;;;;;2.70;0.80;;;22.10;93.10;;;;;;5035069;28;20133;-77
2023/07/25 10:28:36;;;;;;;3.70;1.00;;;21.90;93.00;;;;;;5035905;28;20052;-77
2023/07/25 10:31:06;;;;;;;2.83;0.75;;;21.90;93.10;;;;;;5033393;28;20128;-78
2023/07/25 10:33:37;;;;;;;3.53;0.90;;;21.80;93.60;;;;;;5035349;28;20037;-76
2023/07/25 10:36:03;;;;;;;3.88;1.00;;;21.90;93.10;;;;;;5034760;28;20057;-76
2023/07/25 10:38:40;;;;;;;2.90;0.75;;;21.50;92.80;;;;;;5033559;28;20091;-75
2023/07/25 10:41:16;;;;;;;3.95;0.82;;;21.10;94.00;;;;;;5034145;28;20091;-78
2023/07/25 10:43:45;;;;;;;4.15;0.93;;;20.80;95.20;;;;;;5032680;28;20049;-75
2023/07/25 10:46:18;;;;;;;4.07;0.88;;;20.50;96.20;;;;;;5032910;28;20061;-75
2023/07/25 10:48:46;;;;;;;3.78;0.80;;;20.40;96.70;;;;;;5033560;28;20132;-75
2023/07/25 10:51:17;;;;;;;4.03;0.90;;;20.50;96.70;;;;;;5033097;28;20085;-76
2023/07/25 10:54:16;;;;;;;4.22;1.15;;;20.50;96.20;;;;;;5033368;28;20409;-76
2023/07/25 10:57:14;;;;;;;3.28;1.20;;;20.60;95.60;;;;;;5028791;28;20080;-76
2023/07/25 11:00:13;;;;;;;4.80;0.82;;;20.70;94.90;;;;;;5054433;28;20088;-76
2023/07/25 11:02:43;;;;;;;2.92;0.80;;;21.40;95.70;;;;;;5054364;28;20059;-75
2023/07/25 11:05:12;;;;;;;3.83;0.98;;;22.10;95.30;;;;;;5054475;28;20357;-75
2023/07/25 11:07:46;;;;;;;3.72;0.98;;;22.50;94.50;;;;;;5054638;28;20041;-76
2023/07/25 11:10:34;;;;;;;3.42;0.82;;;22.60;93.60;;;;;;5036895;28;20113;-76
2023/07/25 11:13:00;;;;;;;1.85;0.70;;;22.50;93.20;;;;;;5034742;28;20041;-75
2023/07/25 11:15:30;;;;;;;2.15;0.82;;;22.30;93.30;;;;;;5036802;28;20041;-75
2023/07/25 11:17:56;;;;;;;2.00;0.80;;;22.00;93.50;;;;;;5036418;28;20073;-75
2023/07/25 11:20:23;;;;;;;2.53;0.90;;;21.50;93.60;;;;;;5036092;28;20583;-74
2023/07/25 11:22:50;;;;;;;2.75;0.80;;;21.10;94.00;;;;;;5034855;28;20044;-74
2023/07/25 11:25:16;;;;;;;3.28;1.10;;;20.60;94.30;;;;;;5051910;28;20041;-74
2023/07/25 11:27:47;;;;;;;4.05;0.95;;;20.30;95.00;;;;;;5035291;28;20042;-74
2023/07/25 11:30:17;;;;;;;4.10;1.00;;;20.10;96.60;;;;;;5027405;28;20056;-74
2023/07/25 11:32:47;;;;;;;3.17;0.80;;;19.90;97.20;;;;;;5028182;28;20048;-75
2023/07/25 11:35:15;;;;;;;4.53;1.00;;;19.80;97.60;;;;;;5036163;28;20115;-74
2023/07/25 11:37:44;;;;;;;5.18;1.20;;;19.70;97.60;;;;;;5018504;28;20037;-74
2023/07/25 11:40:22;;;;;;;3.83;0.90;;;19.70;97.50;;;;;;5049825;28;20067;-74
2023/07/25 11:42:48;;;;;;;3.00;1.00;;;19.90;96.60;;;;;;5051744;28;20068;-74
2023/07/25 11:45:15;;;;;;;3.65;0.98;;;19.70;96.90;;;;;;5051196;28;20045;-74
2023/07/25 11:47:48;;;;;;;4.15;1.10;;;19.90;96.80;;;;;;5023219;28;20048;-73
2023/07/25 11:50:14;;;;;;;3.78;0.90;;;20.00;96.40;;;;;;5049704;28;20435;-74
2023/07/25 11:52:43;;;;;;;3.20;0.90;;;20.40;96.10;;;;;;5032548;28;20492;-73
2023/07/25 11:55:10;;;;;;;3.63;1.00;;;20.50;95.60;;;;;;5033780;28;20498;-74
2023/07/25 11:57:41;;;;;;;6.28;1.17;;;20.60;96.60;;;;;;5053273;28;20043;-74
2023/07/25 12:00:11;;;;;;;4.80;1.30;;;20.60;97.90;;;;;;5049351;28;20063;-75
2023/07/25 12:02:43;;;;;;;3.78;1.08;;;20.70;98.10;;;;;;5033452;28;20037;-75
2023/07/25 12:05:24;;;;;;;3.80;0.98;;;20.70;97.60;;;;;;5032391;28;20091;-75
2023/07/25 12:07:51;;;;;;;4.70;1.00;;;20.80;97.50;;;;;;5049781;28;20042;-76
2023/07/25 12:10:32;;;;;;;3.03;0.98;;;20.70;97.40;;;;;;5033419;28;20095;-75
2023/07/25 12:13:02;;;;;;;6.63;1.38;;;20.60;96.70;;;;;;5033285;28;20396;-75
2023/07/25 12:15:45;;;;;;;6.90;1.05;;;20.50;96.70;;;;;;5050862;28;20068;-74
2023/07/25 12:18:38;;;;;;;6.15;1.17;;;20.80;97.50;;;;;;5055495;22;20050;-74
2023/07/25 12:21:27;;;;;;;4.00;1.00;;;21.00;96.90;;;;;;5042018;28;20059;-75
2023/07/25 12:24:05;;;;;;;3.00;0.75;;;21.30;96.60;;;;;;5044096;28;20409;-76
2023/07/25 12:26:46;;;;;;;2.60;1.05;;;21.40;96.10;;;;;;5020039;28;20405;-77
2023/07/25 12:29:17;;;;;;;3.38;0.88;;;21.30;96.30;;;;;;5015509;28;20117;-77
2023/07/25 12:31:43;;;;;;;1.45;0.63;;;21.20;96.20;;;;;;5042789;28;20060;-77
2023/07/25 12:34:09;;;;;;;2.05;0.70;;;21.20;95.30;;;;;;5050298;28;20053;-77
2023/07/25 12:36:38;;;;;;;1.75;0.57;;;21.20;95.40;;;;;;5036554;28;20398;-75
2023/07/25 12:39:05;;;;;;;1.70;0.70;;;21.20;95.70;;;;;;5016060;28;20042;-76
2023/07/25 12:41:31;;;;;;;3.88;0.88;;;21.00;95.90;;;;;;5019918;28;20042;-77
2023/07/25 12:43:57;;;;;;;1.88;0.60;;;21.00;95.60;;;;;;5015176;28;20056;-77
2023/07/25 12:46:23;;;;;;;2.30;0.82;;;21.20;94.40;;;;;;5015596;28;20117;-78
2023/07/25 12:48:49;;;;;;;2.85;0.90;;;21.50;94.50;;;;;;5032777;28;20121;-78